createdAt,value
2022-09-29T00:00:31.082Z,0.00
2022-09-29T00:01:28.750Z,0.00
2022-09-29T00:02:28.633Z,0.00
2022-09-29T00:03:28.630Z,0.00
2022-09-29T00:04:28.518Z,0.00
2022-09-29T00:05:28.454Z,0.00
2022-09-29T00:06:28.378Z,0.00
2022-09-29T00:07:28.323Z,0.00
2022-09-29T00:08:28.284Z,0.00
2022-09-29T00:09:28.194Z,0.00
2022-09-29T00:10:28.128Z,0.00
2022-09-29T00:11:28.059Z,0.00
2022-09-29T00:12:27.991Z,0.00
2022-09-29T00:13:27.916Z,0.00
2022-09-29T00:14:27.854Z,0.00
2022-09-29T00:15:27.809Z,0.00
2022-09-29T00:16:27.820Z,0.00
2022-09-29T00:17:27.681Z,0.00
2022-09-29T00:18:27.652Z,0.00
2022-09-29T00:19:27.530Z,0.00
2022-09-29T00:20:27.499Z,0.00
2022-09-29T00:21:27.415Z,0.00
2022-09-29T00:22:27.330Z,0.00
2022-09-29T00:23:27.297Z,0.00
2022-09-29T00:24:27.993Z,0.00
2022-09-29T00:25:27.152Z,0.00
2022-09-29T00:26:27.077Z,0.00
2022-09-29T00:27:27.013Z,0.00
2022-09-29T00:28:26.951Z,0.00
2022-09-29T00:29:26.885Z,0.00
2022-09-29T00:30:26.838Z,0.00
2022-09-29T00:31:26.867Z,0.00
2022-09-29T00:32:26.697Z,0.00
2022-09-29T00:33:26.575Z,0.00
2022-09-29T00:34:26.575Z,0.00
2022-09-29T00:35:26.504Z,0.00
2022-09-29T00:36:27.205Z,0.00
2022-09-29T00:37:26.361Z,0.00
2022-09-29T00:38:26.319Z,0.00
2022-09-29T00:39:26.268Z,0.00
2022-09-29T00:40:26.211Z,0.00
2022-09-29T00:41:26.129Z,0.00
2022-09-29T00:42:26.062Z,0.00
2022-09-29T00:43:25.976Z,0.00
2022-09-29T00:44:25.913Z,0.00
2022-09-29T00:45:25.911Z,0.00
2022-09-29T00:46:25.791Z,0.00
2022-09-29T00:47:25.717Z,0.00
2022-09-29T00:48:27.914Z,0.00
2022-09-29T00:49:25.595Z,0.00
2022-09-29T00:50:25.543Z,0.00
2022-09-29T00:51:25.462Z,0.00
2022-09-29T00:52:25.400Z,0.00
2022-09-29T00:53:25.344Z,0.00
2022-09-29T00:54:26.045Z,0.00
2022-09-29T00:55:25.209Z,0.00
2022-09-29T00:56:25.145Z,0.00
2022-09-29T00:57:25.062Z,0.00
2022-09-29T00:58:25.041Z,0.00
2022-09-29T00:59:24.937Z,0.00
2022-09-29T01:00:25.015Z,0.00
2022-09-29T01:01:24.881Z,0.00
2022-09-29T01:02:24.833Z,0.00
2022-09-29T01:03:24.689Z,0.00
2022-09-29T01:04:24.623Z,0.00
2022-09-29T01:05:24.568Z,0.00
2022-09-29T01:06:24.499Z,0.00
2022-09-29T01:07:24.434Z,0.00
2022-09-29T01:08:24.358Z,0.00
2022-09-29T01:09:24.297Z,0.00
2022-09-29T01:10:24.240Z,0.00
2022-09-29T01:11:24.174Z,0.00
2022-09-29T01:12:24.124Z,0.00
2022-09-29T01:13:24.028Z,0.00
2022-09-29T01:14:23.959Z,0.00
2022-09-29T01:15:23.922Z,0.00
2022-09-29T01:16:23.909Z,0.00
2022-09-29T01:17:23.776Z,0.00
2022-09-29T01:18:24.479Z,0.00
2022-09-29T01:19:23.656Z,0.00
2022-09-29T01:20:23.594Z,0.00
2022-09-29T01:21:23.540Z,0.00
2022-09-29T01:22:23.458Z,0.00
2022-09-29T01:23:23.383Z,0.00
2022-09-29T01:24:23.336Z,0.00
2022-09-29T01:25:23.246Z,0.00
2022-09-29T01:26:23.194Z,0.00
2022-09-29T01:27:23.135Z,0.00
2022-09-29T01:28:23.065Z,0.00
2022-09-29T01:29:23.002Z,0.00
2022-09-29T01:30:22.958Z,0.00
2022-09-29T01:31:22.943Z,0.00
2022-09-29T01:32:22.797Z,0.00
2022-09-29T01:33:22.748Z,0.00
2022-09-29T01:34:22.668Z,0.00
2022-09-29T01:35:22.621Z,0.00
2022-09-29T01:36:24.532Z,0.00
2022-09-29T01:37:22.476Z,0.00
2022-09-29T01:38:22.431Z,0.00
2022-09-29T01:39:22.338Z,0.00
2022-09-29T01:40:22.325Z,0.00
2022-09-29T01:41:22.208Z,0.00
2022-09-29T01:42:22.182Z,0.00
2022-09-29T01:43:22.109Z,0.00
2022-09-29T01:44:22.031Z,0.00
2022-09-29T01:45:21.981Z,0.00
2022-09-29T01:46:21.884Z,0.00
2022-09-29T01:47:21.822Z,0.00
2022-09-29T01:48:21.791Z,0.00
2022-09-29T01:49:21.694Z,0.00
2022-09-29T01:50:21.637Z,0.00
2022-09-29T01:51:21.578Z,0.00
2022-09-29T01:52:21.530Z,0.00
2022-09-29T01:53:21.446Z,0.00
2022-09-29T01:54:22.170Z,0.00
2022-09-29T01:55:21.311Z,0.00
2022-09-29T01:56:21.234Z,0.00
2022-09-29T01:57:21.174Z,0.00
2022-09-29T01:58:21.169Z,0.00
2022-09-29T01:59:21.040Z,0.00
2022-09-29T02:00:21.012Z,0.00
2022-09-29T02:01:21.013Z,0.00
2022-09-29T02:02:20.899Z,0.00
2022-09-29T02:03:20.795Z,0.00
2022-09-29T02:04:20.766Z,0.00
2022-09-29T02:05:20.665Z,0.00
2022-09-29T02:06:20.625Z,0.00
2022-09-29T02:07:20.522Z,0.00
2022-09-29T02:08:20.470Z,0.00
2022-09-29T02:09:20.401Z,0.00
2022-09-29T02:10:20.333Z,0.00
2022-09-29T02:11:20.282Z,0.00
2022-09-29T02:12:21.421Z,0.00
2022-09-29T02:13:20.148Z,0.00
2022-09-29T02:14:20.201Z,0.00
2022-09-29T02:15:20.001Z,0.00
2022-09-29T02:16:20.005Z,0.00
2022-09-29T02:17:19.957Z,0.00
2022-09-29T02:18:19.841Z,0.00
2022-09-29T02:19:19.774Z,0.00
2022-09-29T02:20:19.684Z,0.00
2022-09-29T02:21:19.651Z,0.00
2022-09-29T02:22:19.560Z,0.00
2022-09-29T02:23:19.484Z,0.00
2022-09-29T02:24:20.957Z,0.00
2022-09-29T02:25:19.388Z,0.00
2022-09-29T02:26:19.306Z,0.00
2022-09-29T02:27:19.252Z,0.00
2022-09-29T02:28:19.177Z,0.00
2022-09-29T02:29:19.115Z,0.00
2022-09-29T02:30:19.058Z,0.00
2022-09-29T02:31:19.040Z,0.00
2022-09-29T02:32:18.904Z,0.00
2022-09-29T02:33:18.838Z,0.00
2022-09-29T02:34:19.773Z,0.00
2022-09-29T02:35:18.721Z,0.00
2022-09-29T02:36:18.692Z,0.00
2022-09-29T02:37:18.573Z,0.00
2022-09-29T02:38:18.514Z,0.00
2022-09-29T02:39:18.463Z,0.00
2022-09-29T02:40:18.504Z,0.00
2022-09-29T02:41:18.327Z,0.00
2022-09-29T02:42:19.055Z,0.00
2022-09-29T02:43:18.203Z,0.00
2022-09-29T02:44:18.220Z,0.00
2022-09-29T02:45:18.068Z,0.00
2022-09-29T02:46:18.021Z,0.00
2022-09-29T02:47:17.939Z,0.00
2022-09-29T02:48:17.915Z,0.00
2022-09-29T02:49:17.814Z,0.00
2022-09-29T02:50:17.735Z,0.00
2022-09-29T02:51:17.664Z,0.00
2022-09-29T02:52:17.603Z,0.00
2022-09-29T02:53:17.555Z,0.00
2022-09-29T02:54:18.336Z,0.00
2022-09-29T02:55:17.424Z,0.00
2022-09-29T02:56:17.353Z,0.00
2022-09-29T02:57:17.293Z,0.00
2022-09-29T02:58:17.224Z,0.00
2022-09-29T02:59:17.159Z,0.00
2022-09-29T03:00:17.378Z,0.00
2022-09-29T03:01:17.062Z,0.00
2022-09-29T03:02:16.963Z,0.00
2022-09-29T03:03:16.948Z,0.00
2022-09-29T03:04:16.848Z,0.00
2022-09-29T03:05:16.766Z,0.00
2022-09-29T03:06:16.725Z,0.00
2022-09-29T03:07:16.627Z,0.00
2022-09-29T03:08:16.567Z,0.00
2022-09-29T03:09:16.518Z,0.00
2022-09-29T03:10:16.464Z,0.00
2022-09-29T03:11:16.375Z,0.00
2022-09-29T03:12:18.630Z,0.00
2022-09-29T03:13:16.250Z,0.00
2022-09-29T03:14:16.350Z,0.00
2022-09-29T03:15:16.124Z,0.00
2022-09-29T03:16:16.125Z,0.00
2022-09-29T03:17:15.980Z,0.00
2022-09-29T03:18:15.937Z,0.00
2022-09-29T03:19:15.851Z,0.00
2022-09-29T03:20:15.796Z,0.00
2022-09-29T03:21:15.732Z,0.00
2022-09-29T03:22:15.685Z,0.00
2022-09-29T03:23:15.593Z,0.00
2022-09-29T03:24:15.593Z,0.00
2022-09-29T03:25:15.477Z,0.00
2022-09-29T03:26:15.411Z,0.00
2022-09-29T03:27:15.348Z,0.00
2022-09-29T03:28:15.262Z,0.00
2022-09-29T03:29:15.211Z,0.00
2022-09-29T03:30:17.461Z,0.00
2022-09-29T03:31:15.113Z,0.00
2022-09-29T03:32:15.006Z,0.00
2022-09-29T03:33:14.954Z,0.00
2022-09-29T03:34:14.981Z,0.00
2022-09-29T03:35:14.826Z,0.00
2022-09-29T03:36:14.773Z,0.00
2022-09-29T03:37:14.684Z,0.00
2022-09-29T03:38:14.627Z,0.00
2022-09-29T03:39:14.586Z,0.00
2022-09-29T03:40:14.505Z,0.00
2022-09-29T03:41:14.428Z,0.00
2022-09-29T03:42:14.379Z,0.00
2022-09-29T03:43:14.348Z,0.00
2022-09-29T03:44:14.250Z,0.00
2022-09-29T03:45:14.198Z,0.00
2022-09-29T03:46:14.165Z,0.00
2022-09-29T03:47:14.039Z,0.00
2022-09-29T03:48:15.197Z,0.00
2022-09-29T03:49:13.915Z,0.00
2022-09-29T03:50:13.847Z,0.00
2022-09-29T03:51:13.790Z,0.00
2022-09-29T03:52:13.722Z,0.00
2022-09-29T03:53:13.672Z,0.00
2022-09-29T03:54:13.593Z,0.00
2022-09-29T03:55:13.516Z,0.00
2022-09-29T03:56:13.462Z,0.00
2022-09-29T03:57:13.399Z,0.00
2022-09-29T03:58:13.317Z,0.00
2022-09-29T03:59:13.270Z,0.00
2022-09-29T04:00:13.214Z,0.00
2022-09-29T04:01:13.232Z,0.00
2022-09-29T04:02:13.159Z,0.00
2022-09-29T04:03:13.001Z,0.00
2022-09-29T04:04:12.945Z,0.00
2022-09-29T04:05:12.881Z,0.00
2022-09-29T04:06:15.671Z,0.00
2022-09-29T04:07:12.753Z,0.00
2022-09-29T04:08:12.687Z,0.00
2022-09-29T04:09:12.606Z,0.00
2022-09-29T04:10:12.547Z,0.00
2022-09-29T04:11:12.488Z,0.00
2022-09-29T04:12:12.433Z,0.00
2022-09-29T04:13:15.470Z,0.00
2022-09-29T04:14:12.284Z,0.00
2022-09-29T04:15:12.223Z,0.00
2022-09-29T04:16:12.172Z,0.00
2022-09-29T04:17:12.102Z,0.00
2022-09-29T04:18:12.816Z,0.00
2022-09-29T04:19:11.994Z,0.00
2022-09-29T04:20:11.903Z,0.00
2022-09-29T04:21:11.829Z,0.00
2022-09-29T04:22:11.760Z,0.00
2022-09-29T04:23:11.701Z,0.00
2022-09-29T04:24:11.643Z,0.00
2022-09-29T04:25:11.568Z,0.00
2022-09-29T04:26:11.504Z,0.00
2022-09-29T04:27:11.440Z,0.00
2022-09-29T04:28:11.380Z,0.00
2022-09-29T04:29:11.326Z,0.00
2022-09-29T04:30:11.287Z,0.00
2022-09-29T04:31:11.276Z,0.00
2022-09-29T04:32:11.129Z,0.00
2022-09-29T04:33:11.049Z,0.00
2022-09-29T04:34:10.983Z,0.00
2022-09-29T04:35:10.928Z,0.00
2022-09-29T04:36:12.086Z,0.00
2022-09-29T04:37:10.808Z,0.00
2022-09-29T04:38:10.731Z,0.00
2022-09-29T04:39:10.677Z,0.00
2022-09-29T04:40:10.609Z,0.00
2022-09-29T04:41:10.565Z,0.00
2022-09-29T04:42:10.476Z,0.00
2022-09-29T04:43:10.404Z,0.00
2022-09-29T04:44:10.336Z,0.00
2022-09-29T04:45:10.306Z,0.00
2022-09-29T04:46:10.283Z,0.00
2022-09-29T04:47:10.143Z,0.00
2022-09-29T04:48:13.894Z,0.00
2022-09-29T04:49:10.016Z,0.00
2022-09-29T04:50:09.957Z,0.00
2022-09-29T04:51:09.900Z,0.00
2022-09-29T04:52:09.815Z,0.00
2022-09-29T04:53:09.772Z,0.00
2022-09-29T04:54:09.716Z,0.00
2022-09-29T04:55:09.571Z,0.00
2022-09-29T04:56:09.528Z,0.00
2022-09-29T04:57:09.456Z,0.00
2022-09-29T04:58:09.374Z,0.00
2022-09-29T04:59:09.310Z,0.00
2022-09-29T05:00:09.269Z,0.00
2022-09-29T05:01:09.300Z,0.00
2022-09-29T05:02:09.239Z,0.00
2022-09-29T05:03:09.060Z,0.00
2022-09-29T05:04:08.996Z,0.00
2022-09-29T05:05:08.938Z,0.00
2022-09-29T05:06:08.886Z,0.00
2022-09-29T05:07:08.798Z,0.00
2022-09-29T05:08:08.725Z,0.00
2022-09-29T05:09:08.676Z,0.00
2022-09-29T05:10:08.597Z,0.00
2022-09-29T05:11:08.549Z,0.00
2022-09-29T05:12:11.161Z,0.00
2022-09-29T05:13:08.407Z,0.00
2022-09-29T05:14:08.352Z,0.00
2022-09-29T05:15:08.287Z,0.00
2022-09-29T05:16:08.230Z,0.00
2022-09-29T05:17:08.153Z,0.00
2022-09-29T05:18:08.095Z,0.00
2022-09-29T05:19:08.036Z,0.00
2022-09-29T05:20:07.974Z,0.00
2022-09-29T05:21:27.044Z,0.00
2022-09-29T05:22:07.856Z,0.00
2022-09-29T05:23:07.841Z,0.00
2022-09-29T05:24:07.712Z,0.00
2022-09-29T05:25:07.634Z,0.00
2022-09-29T05:26:07.584Z,0.00
2022-09-29T05:27:07.517Z,0.00
2022-09-29T05:28:07.440Z,0.00
2022-09-29T05:29:07.388Z,0.00
2022-09-29T05:30:07.327Z,0.00
2022-09-29T05:31:07.290Z,0.00
2022-09-29T05:32:07.209Z,0.00
2022-09-29T05:33:07.128Z,0.00
2022-09-29T05:34:07.038Z,0.00
2022-09-29T05:35:06.977Z,0.00
2022-09-29T05:36:06.953Z,0.00
2022-09-29T05:37:06.851Z,0.00
2022-09-29T05:38:06.805Z,0.00
2022-09-29T05:39:06.728Z,5.62
2022-09-29T05:40:06.675Z,5.62
2022-09-29T05:41:06.608Z,5.62
2022-09-29T05:42:06.873Z,5.62
2022-09-29T05:43:06.475Z,5.62
2022-09-29T05:44:06.403Z,5.62
2022-09-29T05:45:06.670Z,5.62
2022-09-29T05:46:06.385Z,5.62
2022-09-29T05:47:06.217Z,5.62
2022-09-29T05:48:06.184Z,5.62
2022-09-29T05:49:06.082Z,5.62
2022-09-29T05:50:06.001Z,5.62
2022-09-29T05:51:05.953Z,5.62
2022-09-29T05:52:05.883Z,5.62
2022-09-29T05:53:05.821Z,5.62
2022-09-29T05:54:05.771Z,5.62
2022-09-29T05:55:05.690Z,5.62
2022-09-29T05:56:05.636Z,11.25
2022-09-29T05:57:05.664Z,11.25
2022-09-29T05:58:05.511Z,11.25
2022-09-29T05:59:05.433Z,11.25
2022-09-29T06:00:07.681Z,11.25
2022-09-29T06:01:05.376Z,11.25
2022-09-29T06:02:05.295Z,11.25
2022-09-29T06:03:06.213Z,11.25
2022-09-29T06:04:06.351Z,11.25
2022-09-29T06:05:06.895Z,11.25
2022-09-29T06:06:07.348Z,11.25
2022-09-29T06:07:04.925Z,16.88
2022-09-29T06:08:04.850Z,16.88
2022-09-29T06:09:04.784Z,16.88
2022-09-29T06:10:04.705Z,16.88
2022-09-29T06:11:04.651Z,16.88
2022-09-29T06:12:05.362Z,16.88
2022-09-29T06:13:04.518Z,16.88
2022-09-29T06:14:04.460Z,16.88
2022-09-29T06:15:04.394Z,22.50
2022-09-29T06:16:04.380Z,22.50
2022-09-29T06:17:04.270Z,16.88
2022-09-29T06:18:04.225Z,22.50
2022-09-29T06:19:04.173Z,28.12
2022-09-29T06:20:04.064Z,28.12
2022-09-29T06:21:04.013Z,22.50
2022-09-29T06:22:03.944Z,28.12
2022-09-29T06:23:03.878Z,28.12
2022-09-29T06:24:03.842Z,28.12
2022-09-29T06:25:03.752Z,28.12
2022-09-29T06:26:03.665Z,22.50
2022-09-29T06:27:03.600Z,22.50
2022-09-29T06:28:03.552Z,22.50
2022-09-29T06:29:03.494Z,22.50
2022-09-29T06:30:03.440Z,22.50
2022-09-29T06:31:03.365Z,22.50
2022-09-29T06:32:03.338Z,22.50
2022-09-29T06:33:03.255Z,22.50
2022-09-29T06:34:03.155Z,22.50
2022-09-29T06:35:03.082Z,28.12
2022-09-29T06:36:04.257Z,28.12
2022-09-29T06:37:02.973Z,28.12
2022-09-29T06:38:02.892Z,28.12
2022-09-29T06:39:02.849Z,28.12
2022-09-29T06:40:03.648Z,28.12
2022-09-29T06:41:02.781Z,28.12
2022-09-29T06:42:02.666Z,28.12
2022-09-29T06:43:02.572Z,28.12
2022-09-29T06:44:02.498Z,28.12
2022-09-29T06:45:02.468Z,28.12
2022-09-29T06:46:02.448Z,28.12
2022-09-29T06:47:02.320Z,28.12
2022-09-29T06:48:02.357Z,28.12
2022-09-29T06:49:02.188Z,28.12
2022-09-29T06:50:18.206Z,33.75
2022-09-29T06:51:09.662Z,33.75
2022-09-29T06:52:10.760Z,33.75
2022-09-29T06:53:04.614Z,39.38
2022-09-29T06:54:11.038Z,45.00
2022-09-29T06:55:01.802Z,45.00
2022-09-29T06:56:01.740Z,45.00
2022-09-29T06:57:01.663Z,39.38
2022-09-29T06:58:04.271Z,33.75
2022-09-29T06:59:01.548Z,28.12
2022-09-29T07:00:01.538Z,28.12
2022-09-29T07:01:01.424Z,28.12
2022-09-29T07:02:01.393Z,28.12
2022-09-29T07:03:01.269Z,33.75
2022-09-29T07:04:01.208Z,33.75
2022-09-29T07:05:01.155Z,28.12
2022-09-29T07:06:18.867Z,28.12
2022-09-29T07:07:01.034Z,28.12
2022-09-29T07:08:01.491Z,33.75
2022-09-29T07:09:00.898Z,33.75
2022-09-29T07:10:00.836Z,33.75
2022-09-29T07:11:00.770Z,33.75
2022-09-29T07:12:02.970Z,28.12
2022-09-29T07:13:00.625Z,33.75
2022-09-29T07:14:00.559Z,33.75
2022-09-29T07:15:00.516Z,33.75
2022-09-29T07:16:00.436Z,33.75
2022-09-29T07:17:00.362Z,33.75
2022-09-29T07:18:00.339Z,39.38
2022-09-29T07:19:00.257Z,39.38
2022-09-29T07:20:00.186Z,39.38
2022-09-29T07:21:00.104Z,39.38
2022-09-29T07:22:00.077Z,45.00
2022-09-29T07:22:59.982Z,50.62
2022-09-29T07:24:02.564Z,56.25
2022-09-29T07:24:59.859Z,56.25
2022-09-29T07:25:59.781Z,56.25
2022-09-29T07:26:59.731Z,50.62
2022-09-29T07:27:59.695Z,45.00
2022-09-29T07:29:00.160Z,45.00
2022-09-29T07:30:04.110Z,45.00
2022-09-29T07:31:10.746Z,45.00
2022-09-29T07:31:59.457Z,45.00
2022-09-29T07:33:02.282Z,45.00
2022-09-29T07:33:59.571Z,45.00
2022-09-29T07:34:59.203Z,45.00
2022-09-29T07:36:00.701Z,45.00
2022-09-29T07:36:59.067Z,45.00
2022-09-29T07:37:59.047Z,45.00
2022-09-29T07:38:58.957Z,45.00
2022-09-29T07:39:58.895Z,45.00
2022-09-29T07:40:58.881Z,50.62
2022-09-29T07:41:58.765Z,50.62
2022-09-29T07:42:58.695Z,50.62
2022-09-29T07:43:58.635Z,50.62
2022-09-29T07:44:58.567Z,50.62
2022-09-29T07:45:58.557Z,50.62
2022-09-29T07:46:58.426Z,50.62
2022-09-29T07:47:59.157Z,50.62
2022-09-29T07:48:58.305Z,45.00
2022-09-29T07:49:58.243Z,50.62
2022-09-29T07:50:58.167Z,45.00
2022-09-29T07:51:58.117Z,39.38
2022-09-29T07:52:58.049Z,45.00
2022-09-29T07:53:58.830Z,45.00
2022-09-29T07:54:57.914Z,50.62
2022-09-29T07:55:57.844Z,45.00
2022-09-29T07:56:57.793Z,50.62
2022-09-29T07:57:57.727Z,50.62
2022-09-29T07:58:57.655Z,50.62
2022-09-29T07:59:57.617Z,56.25
2022-09-29T08:00:57.573Z,56.25
2022-09-29T08:01:57.535Z,56.25
2022-09-29T08:02:57.399Z,61.88
2022-09-29T08:03:57.344Z,61.88
2022-09-29T08:05:01.411Z,61.88
2022-09-29T08:05:57.992Z,56.25
2022-09-29T08:06:57.146Z,61.88
2022-09-29T08:07:57.068Z,61.88
2022-09-29T08:09:04.060Z,61.88
2022-09-29T08:10:04.414Z,67.50
2022-09-29T08:10:56.893Z,73.12
2022-09-29T08:12:06.688Z,73.12
2022-09-29T08:12:56.767Z,73.12
2022-09-29T08:13:56.683Z,73.12
2022-09-29T08:14:56.628Z,78.75
2022-09-29T08:15:56.546Z,78.75
2022-09-29T08:16:56.582Z,78.75
2022-09-29T08:17:57.202Z,84.38
2022-09-29T08:18:56.383Z,67.50
2022-09-29T08:19:56.303Z,90.00
2022-09-29T08:20:58.782Z,90.00
2022-09-29T08:21:56.195Z,84.38
2022-09-29T08:22:56.119Z,78.75
2022-09-29T08:23:56.845Z,73.12
2022-09-29T08:24:56.014Z,73.12
2022-09-29T08:26:01.450Z,67.50
2022-09-29T08:26:55.870Z,67.50
2022-09-29T08:27:56.091Z,78.75
2022-09-29T08:29:05.034Z,90.00
2022-09-29T08:29:57.149Z,90.00
2022-09-29T08:30:55.607Z,90.00
2022-09-29T08:31:55.595Z,90.00
2022-09-29T08:32:56.153Z,90.00
2022-09-29T08:33:55.383Z,84.38
2022-09-29T08:34:55.365Z,90.00
2022-09-29T08:35:56.059Z,95.62
2022-09-29T08:36:55.223Z,95.62
2022-09-29T08:37:55.165Z,95.62
2022-09-29T08:38:55.088Z,95.62
2022-09-29T08:39:54.999Z,95.62
2022-09-29T08:40:54.993Z,90.00
2022-09-29T08:41:54.916Z,90.00
2022-09-29T08:42:54.815Z,90.00
2022-09-29T08:43:54.740Z,78.75
2022-09-29T08:44:56.474Z,84.38
2022-09-29T08:46:00.478Z,78.75
2022-09-29T08:47:06.505Z,78.75
2022-09-29T08:47:54.600Z,78.75
2022-09-29T08:48:58.357Z,84.38
2022-09-29T08:49:54.369Z,84.38
2022-09-29T08:50:54.303Z,90.00
2022-09-29T08:51:54.363Z,90.00
2022-09-29T08:52:54.171Z,90.00
2022-09-29T08:54:02.428Z,90.00
2022-09-29T08:54:54.048Z,90.00
2022-09-29T08:55:53.965Z,73.12
2022-09-29T08:56:53.905Z,84.38
2022-09-29T08:57:53.856Z,90.00
2022-09-29T08:58:53.773Z,90.00
2022-09-29T08:59:53.733Z,90.00
2022-09-29T09:00:53.703Z,95.62
2022-09-29T09:01:53.689Z,106.88
2022-09-29T09:02:56.716Z,106.88
2022-09-29T09:03:53.461Z,95.62
2022-09-29T09:04:53.391Z,101.25
2022-09-29T09:05:55.743Z,101.25
2022-09-29T09:06:53.290Z,106.88
2022-09-29T09:07:53.209Z,112.50
2022-09-29T09:08:53.167Z,112.50
2022-09-29T09:09:53.097Z,112.50
2022-09-29T09:10:52.997Z,101.25
2022-09-29T09:11:52.955Z,106.88
2022-09-29T09:12:52.870Z,106.88
2022-09-29T09:13:52.800Z,112.50
2022-09-29T09:14:52.745Z,118.12
2022-09-29T09:15:52.687Z,123.75
2022-09-29T09:16:52.688Z,123.75
2022-09-29T09:17:52.568Z,123.75
2022-09-29T09:18:52.559Z,129.38
2022-09-29T09:19:52.443Z,129.38
2022-09-29T09:20:52.377Z,135.00
2022-09-29T09:21:52.298Z,140.62
2022-09-29T09:22:52.244Z,151.88
2022-09-29T09:23:55.542Z,157.50
2022-09-29T09:24:52.106Z,163.12
2022-09-29T09:25:52.065Z,168.75
2022-09-29T09:26:52.004Z,180.00
2022-09-29T09:27:51.908Z,174.38
2022-09-29T09:28:51.858Z,168.75
2022-09-29T09:29:52.557Z,196.88
2022-09-29T09:30:51.796Z,168.75
2022-09-29T09:31:51.654Z,174.38
2022-09-29T09:32:51.581Z,180.00
2022-09-29T09:34:03.705Z,196.88
2022-09-29T09:34:51.460Z,208.12
2022-09-29T09:35:58.646Z,196.88
2022-09-29T09:37:01.616Z,208.12
2022-09-29T09:37:51.304Z,230.62
2022-09-29T09:38:51.205Z,241.88
2022-09-29T09:39:51.165Z,230.62
2022-09-29T09:40:51.066Z,202.50
2022-09-29T09:41:52.548Z,191.25
2022-09-29T09:42:50.941Z,196.88
2022-09-29T09:43:50.865Z,219.38
2022-09-29T09:44:50.802Z,241.88
2022-09-29T09:45:50.749Z,241.88
2022-09-29T09:46:50.697Z,230.62
2022-09-29T09:47:50.634Z,208.12
2022-09-29T09:48:50.547Z,202.50
2022-09-29T09:49:51.686Z,275.62
2022-09-29T09:50:50.910Z,303.75
2022-09-29T09:51:50.934Z,196.88
2022-09-29T09:52:50.289Z,326.25
2022-09-29T09:53:51.263Z,894.38
2022-09-29T09:54:50.158Z,1518.75
2022-09-29T09:55:50.115Z,1816.88
2022-09-29T09:56:50.046Z,1845.00
2022-09-29T09:57:49.973Z,961.88
2022-09-29T09:58:49.934Z,1125.00
2022-09-29T09:59:52.781Z,444.38
2022-09-29T10:00:49.812Z,298.12
2022-09-29T10:01:49.718Z,247.50
2022-09-29T10:02:49.706Z,258.75
2022-09-29T10:03:49.595Z,225.00
2022-09-29T10:04:49.528Z,241.88
2022-09-29T10:05:50.670Z,230.62
2022-09-29T10:06:49.385Z,230.62
2022-09-29T10:07:49.425Z,213.75
2022-09-29T10:08:49.264Z,241.88
2022-09-29T10:09:49.282Z,241.88
2022-09-29T10:10:58.221Z,236.25
2022-09-29T10:11:49.083Z,236.25
2022-09-29T10:12:49.016Z,236.25
2022-09-29T10:13:50.557Z,230.62
2022-09-29T10:14:50.882Z,230.62
2022-09-29T10:15:49.771Z,230.62
2022-09-29T10:16:49.013Z,225.00
2022-09-29T10:17:50.233Z,225.00
2022-09-29T10:18:48.666Z,219.38
2022-09-29T10:19:48.564Z,219.38
2022-09-29T10:20:48.504Z,213.75
2022-09-29T10:21:48.427Z,213.75
2022-09-29T10:22:51.109Z,219.38
2022-09-29T10:23:48.309Z,219.38
2022-09-29T10:24:48.255Z,213.75
2022-09-29T10:25:48.180Z,213.75
2022-09-29T10:26:48.111Z,191.25
2022-09-29T10:27:48.039Z,180.00
2022-09-29T10:28:47.976Z,202.50
2022-09-29T10:29:47.936Z,202.50
2022-09-29T10:30:47.942Z,196.88
2022-09-29T10:31:47.778Z,213.75
2022-09-29T10:32:47.736Z,208.12
2022-09-29T10:33:47.661Z,270.00
2022-09-29T10:34:47.608Z,241.88
2022-09-29T10:35:47.552Z,191.25
2022-09-29T10:36:47.461Z,168.75
2022-09-29T10:37:47.428Z,191.25
2022-09-29T10:38:47.350Z,202.50
2022-09-29T10:39:47.274Z,196.88
2022-09-29T10:40:47.208Z,196.88
2022-09-29T10:41:48.632Z,191.25
2022-09-29T10:42:47.106Z,196.88
2022-09-29T10:43:47.057Z,196.88
2022-09-29T10:44:46.971Z,185.62
2022-09-29T10:45:46.942Z,174.38
2022-09-29T10:46:46.846Z,157.50
2022-09-29T10:47:46.785Z,163.12
2022-09-29T10:48:46.708Z,168.75
2022-09-29T10:49:46.625Z,225.00
2022-09-29T10:50:46.674Z,680.62
2022-09-29T10:51:46.515Z,585.00
2022-09-29T10:52:46.435Z,191.25
2022-09-29T10:53:47.159Z,174.38
2022-09-29T10:54:46.317Z,163.12
2022-09-29T10:55:46.255Z,157.50
2022-09-29T10:56:46.928Z,146.25
2022-09-29T10:57:46.116Z,140.62
2022-09-29T10:59:00.035Z,151.88
2022-09-29T10:59:48.318Z,146.25
2022-09-29T11:00:45.939Z,135.00
2022-09-29T11:01:45.877Z,135.00
2022-09-29T11:02:45.833Z,140.62
2022-09-29T11:03:45.751Z,112.50
2022-09-29T11:04:45.694Z,135.00
2022-09-29T11:05:45.625Z,129.38
2022-09-29T11:06:45.544Z,135.00
2022-09-29T11:07:45.487Z,129.38
2022-09-29T11:08:45.458Z,129.38
2022-09-29T11:09:45.433Z,118.12
2022-09-29T11:10:45.295Z,123.75
2022-09-29T11:11:45.249Z,123.75
2022-09-29T11:12:45.195Z,123.75
2022-09-29T11:13:45.106Z,123.75
2022-09-29T11:14:45.076Z,118.12
2022-09-29T11:15:44.968Z,112.50
2022-09-29T11:16:44.947Z,112.50
2022-09-29T11:17:46.814Z,112.50
2022-09-29T11:18:44.788Z,112.50
2022-09-29T11:19:44.728Z,101.25
2022-09-29T11:20:44.663Z,90.00
2022-09-29T11:21:44.621Z,95.62
2022-09-29T11:22:44.518Z,95.62
2022-09-29T11:23:44.483Z,106.88
2022-09-29T11:24:44.389Z,101.25
2022-09-29T11:25:44.340Z,84.38
2022-09-29T11:26:44.281Z,95.62
2022-09-29T11:27:44.220Z,95.62
2022-09-29T11:28:44.142Z,95.62
2022-09-29T11:29:44.104Z,101.25
2022-09-29T11:30:44.074Z,95.62
2022-09-29T11:31:43.982Z,95.62
2022-09-29T11:32:43.899Z,90.00
2022-09-29T11:33:43.841Z,90.00
2022-09-29T11:34:43.763Z,90.00
2022-09-29T11:35:43.697Z,95.62
2022-09-29T11:36:43.624Z,90.00
2022-09-29T11:37:44.123Z,90.00
2022-09-29T11:38:43.497Z,90.00
2022-09-29T11:39:43.445Z,90.00
2022-09-29T11:40:43.395Z,78.75
2022-09-29T11:41:43.607Z,73.12
2022-09-29T11:42:43.234Z,73.12
2022-09-29T11:43:43.171Z,78.75
2022-09-29T11:44:43.111Z,84.38
2022-09-29T11:45:43.110Z,84.38
2022-09-29T11:46:42.994Z,84.38
2022-09-29T11:47:44.294Z,84.38
2022-09-29T11:48:42.850Z,78.75
2022-09-29T11:49:42.808Z,84.38
2022-09-29T11:50:42.739Z,84.38
2022-09-29T11:51:42.701Z,78.75
2022-09-29T11:52:42.613Z,78.75
2022-09-29T11:53:42.550Z,78.75
2022-09-29T11:54:42.485Z,84.38
2022-09-29T11:55:42.406Z,90.00
2022-09-29T11:56:42.346Z,95.62
2022-09-29T11:57:42.306Z,112.50
2022-09-29T11:58:42.230Z,163.12
2022-09-29T11:59:44.158Z,146.25
2022-09-29T12:00:42.087Z,112.50
2022-09-29T12:01:42.043Z,140.62
2022-09-29T12:02:42.092Z,146.25
2022-09-29T12:03:41.927Z,135.00
2022-09-29T12:04:41.833Z,168.75
2022-09-29T12:05:42.555Z,264.38
2022-09-29T12:06:41.699Z,320.62
2022-09-29T12:07:41.656Z,309.38
2022-09-29T12:08:41.593Z,106.88
2022-09-29T12:09:41.557Z,90.00
2022-09-29T12:10:41.461Z,84.38
2022-09-29T12:11:54.905Z,78.75
2022-09-29T12:12:41.378Z,73.12
2022-09-29T12:13:41.271Z,67.50
2022-09-29T12:14:41.451Z,67.50
2022-09-29T12:15:41.255Z,67.50
2022-09-29T12:16:41.144Z,67.50
2022-09-29T12:17:41.827Z,67.50
2022-09-29T12:18:40.944Z,67.50
2022-09-29T12:19:40.872Z,67.50
2022-09-29T12:20:40.805Z,157.50
2022-09-29T12:21:40.768Z,84.38
2022-09-29T12:22:44.252Z,67.50
2022-09-29T12:23:40.637Z,78.75
2022-09-29T12:24:40.553Z,78.75
2022-09-29T12:25:40.496Z,78.75
2022-09-29T12:26:40.452Z,84.38
2022-09-29T12:27:40.360Z,73.12
2022-09-29T12:28:40.312Z,73.12
2022-09-29T12:29:40.263Z,78.75
2022-09-29T12:30:40.213Z,101.25
2022-09-29T12:31:40.101Z,84.38
2022-09-29T12:32:40.146Z,90.00
2022-09-29T12:33:40.017Z,78.75
2022-09-29T12:34:39.929Z,118.12
2022-09-29T12:35:40.646Z,140.62
2022-09-29T12:36:39.784Z,73.12
2022-09-29T12:37:39.719Z,73.12
2022-09-29T12:38:39.676Z,67.50
2022-09-29T12:39:39.602Z,67.50
2022-09-29T12:40:39.549Z,78.75
2022-09-29T12:41:41.776Z,73.12
2022-09-29T12:42:39.423Z,78.75
2022-09-29T12:43:39.351Z,67.50
2022-09-29T12:44:39.288Z,67.50
2022-09-29T12:45:39.209Z,61.88
2022-09-29T12:46:39.141Z,61.88
2022-09-29T12:47:39.125Z,61.88
2022-09-29T12:48:39.045Z,56.25
2022-09-29T12:49:38.964Z,56.25
2022-09-29T12:50:38.887Z,50.62
2022-09-29T12:51:38.838Z,50.62
2022-09-29T12:52:38.753Z,56.25
2022-09-29T12:53:39.038Z,67.50
2022-09-29T12:54:38.652Z,67.50
2022-09-29T12:55:38.561Z,61.88
2022-09-29T12:56:38.506Z,67.50
2022-09-29T12:57:38.488Z,61.88